New Albany, Ohio
Current Conditions -  °F | °C
As of 2:02 PM on Saturday 25 Oct 2014 (Local Time) from KCMH Reporting Station
Broken Clouds Broken Clouds  
Wind Chill: 68°   Ceiling: 25000
Heat Index: 68°   Visibility: 10mi
Dew Point: 54°   Wind: 13mph
Humidity: 60%   Direction: 220°SW
Pressure: 29.87"   Gusts: NA
Location:  40.08°N, 82.81°W
Report Text: KCMH 251802Z 22011KT 10SM SCT030 BKN250 20/12 A2987 RMK AO2
Loading
Personal Weather Stations






























Interactive Weather Map
Tropical Storm Tracking
New forecast layout! Learn more

10-Day Weather Forecast

Advertisements
Track Severe Weather on mobile